Time;durP1;ratioP1;P1;durP2;ratioP2;P2;SDS_P1;SDS_P2;PMS_P1;PMS_P2;Temp;Humidity;BMP_temperature;BMP_pressure;BME280_temperature;BME280_humidity;BME280_pressure;Samples;Min_cycle;Max_cycle;Signal;HPM_P1;HPM_P2
2024/04/07 00:02:20;;;;;;;1.43;1.33;;;;;;;2.48;77.66;101408.88;5073341;28;20443;-73
2024/04/07 00:04:47;;;;;;;1.20;1.10;;;;;;;2.49;77.48;101401.13;5073134;28;20625;-73
2024/04/07 00:07:13;;;;;;;2.63;1.40;;;;;;;2.50;77.61;101402.88;5073098;28;20450;-73
2024/04/07 00:09:40;;;;;;;1.70;1.43;;;;;;;2.50;77.52;101407.16;5073040;28;20478;-73
2024/04/07 00:12:08;;;;;;;2.60;1.30;;;;;;;2.52;77.51;101411.53;5061001;28;20231;-72
2024/04/07 00:14:36;;;;;;;1.90;1.30;;;;;;;2.52;77.52;101400.31;5056906;28;21036;-73
2024/04/07 00:17:05;;;;;;;2.07;1.27;;;;;;;2.54;77.64;101406.41;5055303;28;20444;-73
2024/04/07 00:19:33;;;;;;;3.43;1.63;;;;;;;2.54;77.31;101399.50;5053813;28;20934;-73
2024/04/07 00:21:59;;;;;;;2.37;1.87;;;;;;;2.54;77.85;101389.19;5055134;28;20443;-74
2024/04/07 00:24:26;;;;;;;3.97;1.60;;;;;;;2.47;77.88;101376.09;5057189;28;20450;-74
2024/04/07 00:26:52;;;;;;;2.33;1.77;;;;;;;2.54;77.90;101370.25;5059708;28;20208;-73
2024/04/07 00:29:19;;;;;;;2.20;1.80;;;;;;;2.57;78.04;101362.53;5062200;28;20445;-74
2024/04/07 00:31:44;;;;;;;3.27;1.70;;;;;;;2.59;78.03;101361.75;5063600;28;20229;-73
2024/04/07 00:34:13;;;;;;;2.63;1.50;;;;;;;2.60;77.91;101360.03;5066072;28;20451;-74
2024/04/07 00:36:39;;;;;;;3.07;1.67;;;;;;;2.59;78.03;101350.53;5068731;28;20209;-73
2024/04/07 00:39:08;;;;;;;3.63;2.30;;;;;;;2.61;78.14;101356.59;5070557;28;20463;-73
2024/04/07 00:41:33;;;;;;;5.03;2.47;;;;;;;2.61;78.37;101346.25;5071723;28;20451;-73
2024/04/07 00:44:00;;;;;;;4.00;2.00;;;;;;;2.62;78.75;101350.59;5069860;28;20455;-74
2024/04/07 00:46:27;;;;;;;3.47;2.33;;;;;;;2.64;78.50;101354.06;5059242;28;20247;-74
2024/04/07 00:48:54;;;;;;;3.90;2.00;;;;;;;2.66;78.63;101342.03;5060358;28;20887;-73
2024/04/07 00:51:21;;;;;;;4.07;2.07;;;;;;;2.67;78.43;101320.56;5061741;28;20450;-73
2024/04/07 00:53:48;;;;;;;4.93;2.03;;;;;;;2.68;78.43;101322.28;5064035;28;20564;-73
2024/04/07 00:56:14;;;;;;;2.10;1.47;;;;;;;2.69;78.52;101305.94;5066873;28;20440;-74
2024/04/07 00:58:42;;;;;;;3.37;2.50;;;;;;;2.70;78.49;101275.78;5068868;28;20489;-73
2024/04/07 01:01:08;;;;;;;3.93;1.87;;;;;;;2.71;78.79;101267.22;5068751;28;20202;-70
2024/04/07 01:03:35;;;;;;;3.83;2.37;;;;;;;2.71;78.84;101278.41;5072307;28;20447;-70
2024/04/07 01:06:01;;;;;;;5.33;2.70;;;;;;;2.71;78.71;101267.22;5072420;28;20198;-70
2024/04/07 01:08:30;;;;;;;5.23;2.40;;;;;;;2.74;78.83;101273.31;5072111;28;20999;-70
2024/04/07 01:10:56;;;;;;;3.00;1.97;;;;;;;2.76;78.92;101286.25;5069992;28;20203;-71
2024/04/07 01:13:27;;;;;;;3.00;1.93;;;;;;;2.76;79.05;101278.50;5072286;28;20924;-70
2024/04/07 01:15:53;;;;;;;3.73;2.00;;;;;;;2.77;78.85;101273.34;5072319;28;20584;-70
2024/04/07 01:18:21;;;;;;;3.37;2.30;;;;;;;2.80;79.07;101247.56;5072134;28;20434;-71
2024/04/07 01:20:47;;;;;;;2.77;2.30;;;;;;;2.76;79.39;101240.63;5072166;28;20444;-71
2024/04/07 01:23:17;;;;;;;3.57;2.30;;;;;;;2.71;79.29;101215.53;5072141;28;20947;-71
2024/04/07 01:25:43;;;;;;;1.13;0.73;;;;;;;2.81;79.17;101233.81;5074517;28;20613;-71
2024/04/07 01:28:11;;;;;;;2.70;2.03;;;;;;;2.83;79.34;101247.59;5076206;28;20781;-71
2024/04/07 01:30:37;;;;;;;2.60;1.83;;;;;;;2.87;79.57;101258.00;5076443;28;20254;-73
2024/04/07 01:33:04;;;;;;;2.93;2.40;;;;;;;2.88;79.55;101249.41;5076101;28;20572;-73
2024/04/07 01:35:30;;;;;;;10.47;3.20;;;;;;;2.89;79.60;101253.72;5076164;28;20200;-73
2024/04/07 01:37:57;;;;;;;4.57;2.50;;;;;;;2.90;79.72;101253.78;5076122;28;20439;-73
2024/04/07 01:40:25;;;;;;;4.47;2.80;;;;;;;2.91;79.78;101247.75;5076124;28;20832;-73
2024/04/07 01:42:52;;;;;;;3.53;2.30;;;;;;;2.93;79.50;101242.63;5075961;28;20447;-73
2024/04/07 01:45:18;;;;;;;4.87;2.40;;;;;;;2.95;79.74;101230.56;5076323;28;20435;-73
2024/04/07 01:47:45;;;;;;;3.47;2.37;;;;;;;2.96;79.75;101216.81;5075811;28;20495;-73
2024/04/07 01:50:12;;;;;;;3.40;2.00;;;;;;;2.96;79.66;101212.50;5075803;28;20439;-73
2024/04/07 01:52:39;;;;;;;3.13;2.10;;;;;;;2.96;79.38;101211.66;5075672;28;20486;-73
2024/04/07 01:55:05;;;;;;;5.47;2.67;;;;;;;3.01;79.86;101225.47;5075676;28;20436;-73
2024/04/07 01:57:33;;;;;;;3.90;2.40;;;;;;;3.01;79.90;101213.47;5075693;28;20439;-73
2024/04/07 01:59:59;;;;;;;4.50;2.70;;;;;;;3.04;79.99;101210.91;5075491;28;20439;-73
2024/04/07 02:02:26;;;;;;;3.10;2.30;;;;;;;3.06;79.71;101190.25;5075802;28;20462;-73
2024/04/07 02:04:54;;;;;;;2.47;1.80;;;;;;;3.08;79.99;101187.69;5075542;28;20208;-73
2024/04/07 02:07:22;;;;;;;4.60;2.20;;;;;;;3.06;79.89;101177.31;5075434;28;20971;-73
2024/04/07 02:09:48;;;;;;;3.63;1.93;;;;;;;3.09;80.24;101167.00;5075059;28;20474;-76
2024/04/07 02:12:15;;;;;;;3.80;2.30;;;;;;;3.11;80.15;101161.88;5070757;28;20494;-77
2024/04/07 02:14:43;;;;;;;4.20;1.87;;;;;;;3.12;80.25;101148.97;5067522;28;20435;-77
2024/04/07 02:17:11;;;;;;;4.73;2.43;;;;;;;3.13;80.25;101153.31;5064465;28;20456;-77
2024/04/07 02:19:37;;;;;;;2.80;2.27;;;;;;;3.15;80.26;101137.78;5067145;28;20901;-73
2024/04/07 02:22:04;;;;;;;2.03;1.73;;;;;;;3.17;80.22;101139.56;5069765;28;20502;-73
2024/04/07 02:24:30;;;;;;;3.03;2.40;;;;;;;3.20;80.39;101133.56;5071561;28;20202;-73
2024/04/07 02:26:57;;;;;;;4.10;2.20;;;;;;;3.23;80.61;101138.78;5074817;28;20441;-72
2024/04/07 02:29:23;;;;;;;3.40;1.90;;;;;;;3.23;80.51;101137.03;5069287;28;20456;-73
2024/04/07 02:31:52;;;;;;;3.20;2.00;;;;;;;3.25;80.85;101142.25;5058078;28;20531;-73
2024/04/07 02:34:18;;;;;;;5.77;2.20;;;;;;;3.27;80.80;101140.56;5068707;28;20446;-73
2024/04/07 02:36:45;;;;;;;2.20;1.93;;;;;;;3.29;80.75;101144.88;5066710;28;20439;-73
2024/04/07 02:39:11;;;;;;;3.13;2.00;;;;;;;3.31;80.65;101146.63;5065525;28;20221;-74
2024/04/07 02:41:40;;;;;;;3.20;2.10;;;;;;;3.33;80.62;101145.81;5068450;28;20881;-73
2024/04/07 02:44:06;;;;;;;3.23;2.03;;;;;;;3.36;80.61;101132.06;5074295;28;20456;-73
2024/04/07 02:49:19;;;;;;;3.50;2.10;;;;;;;3.37;80.47;101115.69;5055656;28;20439;-73
2024/04/07 02:51:46;;;;;;;3.83;1.90;;;;;;;3.38;80.63;101113.09;5056407;28;20452;-73
2024/04/07 02:54:13;;;;;;;3.13;1.70;;;;;;;3.40;80.64;101121.75;5058352;28;20490;-73
2024/04/07 02:56:39;;;;;;;3.63;1.63;;;;;;;3.40;80.55;101116.56;5061499;28;20443;-74
2024/04/07 02:59:05;;;;;;;3.60;2.13;;;;;;;3.43;80.66;101118.34;5062931;28;20880;-73
2024/04/07 03:01:31;;;;;;;4.27;2.30;;;;;;;3.45;80.11;101121.81;5064963;28;20203;-73
2024/04/07 03:03:58;;;;;;;3.20;1.97;;;;;;;3.46;80.55;101102.84;5072166;28;20783;-74
2024/04/07 03:06:25;;;;;;;4.47;2.03;;;;;;;3.43;80.69;101088.16;5074525;28;20200;-74
2024/04/07 03:08:57;;;;;;;4.20;2.77;;;;;;;3.47;80.59;101092.53;5074287;28;20483;-73
2024/04/07 03:11:23;;;;;;;3.13;1.73;;;;;;;3.49;80.58;101095.97;5074387;28;20828;-73
2024/04/07 03:13:50;;;;;;;3.40;2.60;;;;;;;3.51;80.57;101093.44;5074244;28;20490;-73
2024/04/07 03:16:16;;;;;;;3.67;2.50;;;;;;;3.52;80.63;101079.63;5074317;28;20450;-73
2024/04/07 03:18:43;;;;;;;2.97;2.20;;;;;;;3.54;80.70;101088.28;5071419;28;20451;-71
2024/04/07 03:21:10;;;;;;;3.80;2.20;;;;;;;3.55;80.39;101064.13;5074137;28;20653;-73
2024/04/07 03:23:38;;;;;;;2.67;2.10;;;;;;;3.49;80.65;101059.75;5072141;28;20506;-73
2024/04/07 03:26:04;;;;;;;4.70;2.80;;;;;;;3.59;80.39;101076.28;5074046;28;20433;-72
2024/04/07 03:28:31;;;;;;;5.53;3.03;;;;;;;3.60;80.57;101064.19;5074083;28;20471;-73
2024/04/07 03:30:57;;;;;;;2.67;2.00;;;;;;;3.58;80.53;101063.31;5074054;28;20262;-73
2024/04/07 03:33:24;;;;;;;5.57;2.87;;;;;;;3.62;80.77;101058.19;5073643;28;20483;-73
2024/04/07 03:36:00;;;;;;;3.63;2.30;;;;;;;3.62;80.57;101045.25;5073757;28;20204;-73
2024/04/07 03:38:27;;;;;;;4.50;2.47;;;;;;;3.63;80.48;101033.19;5072091;28;20460;-73
2024/04/07 03:40:55;;;;;;;4.67;2.50;;;;;;;3.62;80.56;101003.00;5073730;28;20966;-73
2024/04/07 03:43:22;;;;;;;3.73;2.27;;;;;;;3.66;80.49;101025.44;5073617;28;20456;-73
2024/04/07 03:45:58;;;;;;;4.03;2.63;;;;;;;3.66;80.71;101036.66;5073649;28;20450;-73
2024/04/07 03:48:25;;;;;;;5.03;2.27;;;;;;;3.67;80.77;101038.41;5071519;28;20778;-73
2024/04/07 03:50:52;;;;;;;6.17;2.40;;;;;;;3.67;80.82;101025.47;5073685;28;20891;-73
2024/04/07 03:53:18;;;;;;;3.83;2.33;;;;;;;3.69;80.83;101021.16;5073392;28;20486;-73
2024/04/07 03:55:45;;;;;;;4.97;2.87;;;;;;;3.69;80.76;101021.16;5073435;28;20816;-73
2024/04/07 03:58:14;;;;;;;3.33;1.90;;;;;;;3.70;80.64;101007.38;5073322;28;20689;-73
2024/04/07 04:00:39;;;;;;;4.30;2.33;;;;;;;3.72;80.61;101009.97;5073353;28;20455;-73
2024/04/07 04:03:06;;;;;;;3.13;2.20;;;;;;;3.74;80.75;100997.94;5073353;28;20444;-74
2024/04/07 04:05:32;;;;;;;3.03;2.40;;;;;;;3.76;80.92;100995.38;5073477;28;20293;-73
2024/04/07 04:07:59;;;;;;;4.23;2.63;;;;;;;3.72;80.84;100989.28;5073260;28;20550;-74
2024/04/07 04:10:25;;;;;;;5.03;2.37;;;;;;;3.78;80.99;100981.59;5064310;28;20220;-73
2024/04/07 04:12:52;;;;;;;4.23;2.30;;;;;;;3.78;80.95;100968.66;5055818;28;20970;-73
2024/04/07 04:15:19;;;;;;;3.17;1.93;;;;;;;3.80;80.78;100976.41;5053665;28;20217;-74
2024/04/07 04:17:46;;;;;;;2.77;1.70;;;;;;;3.80;80.85;100963.47;5054797;28;20473;-74
2024/04/07 04:20:12;;;;;;;2.23;1.77;;;;;;;3.81;80.71;100970.38;5072486;28;20458;-73
2024/04/07 04:22:38;;;;;;;2.30;2.00;;;;;;;3.83;80.94;100960.91;5072836;28;20449;-73
2024/04/07 04:25:05;;;;;;;1.67;1.37;;;;;;;3.84;80.94;100967.78;5072889;28;20212;-74
2024/04/07 04:27:32;;;;;;;2.33;1.57;;;;;;;3.84;80.64;100957.44;5072818;28;20451;-73
2024/04/07 04:29:57;;;;;;;2.73;2.17;;;;;;;3.84;80.80;100960.03;5072940;28;20450;-80
2024/04/07 04:32:26;;;;;;;6.10;1.70;;;;;;;3.85;80.82;100948.84;5072927;28;20448;-80
2024/04/07 04:34:52;;;;;;;2.20;1.80;;;;;;;3.86;80.85;100946.25;5072837;28;20201;-80
2024/04/07 04:37:20;;;;;;;3.73;2.13;;;;;;;3.88;80.95;100956.63;5072795;28;20479;-80
2024/04/07 04:39:47;;;;;;;1.30;1.20;;;;;;;3.88;80.51;100944.56;5072585;28;20538;-80
2024/04/07 04:42:14;;;;;;;3.73;2.00;;;;;;;3.89;80.80;100950.59;5072842;28;20910;-79
2024/04/07 04:44:40;;;;;;;2.40;1.70;;;;;;;3.90;80.29;100942.00;5066600;28;20455;-80
2024/04/07 04:47:09;;;;;;;5.00;2.23;;;;;;;3.91;80.90;100946.31;5062366;28;20450;-80
2024/04/07 04:49:36;;;;;;;5.37;2.73;;;;;;;3.92;81.01;100942.84;5065974;28;20199;-80
2024/04/07 04:52:03;;;;;;;5.53;2.03;;;;;;;3.93;80.87;100942.00;5067271;28;20452;-79
2024/04/07 04:54:29;;;;;;;2.20;2.00;;;;;;;3.94;81.19;100948.91;5064065;28;20874;-80
2024/04/07 04:56:56;;;;;;;0.50;0.50;;;;;;;3.95;80.69;100933.41;5071002;28;20869;-80
2024/04/07 04:59:22;;;;;;;4.43;2.10;;;;;;;3.96;80.92;100924.78;5071374;28;20811;-80
2024/04/07 05:01:49;;;;;;;3.70;2.40;;;;;;;3.98;81.12;100927.38;5066896;28;20437;-81
2024/04/07 05:04:15;;;;;;;5.30;2.20;;;;;;;3.97;81.16;100918.72;5057462;28;20209;-80
2024/04/07 05:06:43;;;;;;;6.60;2.37;;;;;;;3.99;80.96;100908.41;5064150;28;20800;-80
2024/04/07 05:09:09;;;;;;;5.27;2.40;;;;;;;4.01;81.08;100898.91;5062337;28;20229;-81
2024/04/07 05:11:37;;;;;;;8.13;2.70;;;;;;;4.03;80.83;100896.31;5063937;28;20447;-80
2024/04/07 05:14:03;;;;;;;7.43;2.70;;;;;;;4.04;81.05;100891.19;5069848;28;20513;-80
2024/04/07 05:16:30;;;;;;;3.67;1.73;;;;;;;4.05;81.05;100884.25;5072384;28;20445;-80
2024/04/07 05:18:56;;;;;;;4.23;2.67;;;;;;;4.06;81.31;100886.84;5072416;28;20199;-81
2024/04/07 05:21:23;;;;;;;7.10;2.13;;;;;;;4.07;81.01;100888.59;5072266;28;20472;-81
2024/04/07 05:23:50;;;;;;;6.07;2.27;;;;;;;4.07;81.05;100888.59;5072432;28;20218;-80
2024/04/07 05:26:19;;;;;;;6.13;1.97;;;;;;;4.10;80.96;100888.63;5072523;28;20448;-81
2024/04/07 05:28:46;;;;;;;3.20;1.93;;;;;;;4.11;80.94;100874.81;5072468;28;20492;-80
2024/04/07 05:31:13;;;;;;;6.97;2.37;;;;;;;4.06;81.17;100865.28;5072735;28;20779;-80
2024/04/07 05:33:39;;;;;;;6.30;2.40;;;;;;;4.15;81.13;100865.31;5070756;28;20538;-80
2024/04/07 05:36:06;;;;;;;4.80;2.00;;;;;;;4.15;81.16;100861.03;5067717;28;20535;-80
2024/04/07 05:38:34;;;;;;;3.53;2.03;;;;;;;4.18;81.24;100855.00;5055096;28;20457;-80
2024/04/07 05:41:02;;;;;;;4.27;2.00;;;;;;;4.18;81.20;100849.81;5068819;28;20198;-74
2024/04/07 05:43:28;;;;;;;6.97;2.80;;;;;;;4.19;81.42;100847.22;5071937;28;20456;-74
2024/04/07 05:45:56;;;;;;;5.80;2.37;;;;;;;4.22;81.18;100853.28;5072233;28;20455;-74
2024/04/07 05:48:24;;;;;;;2.93;2.27;;;;;;;4.23;81.24;100842.91;5071928;28;20451;-74
2024/04/07 05:50:50;;;;;;;3.90;2.13;;;;;;;4.24;81.18;100829.13;5071900;28;20496;-73
2024/04/07 05:53:16;;;;;;;4.37;1.50;;;;;;;4.26;81.13;100829.97;5071866;28;20482;-73
2024/04/07 05:55:44;;;;;;;6.17;2.60;;;;;;;4.29;81.24;100834.31;5066390;28;20457;-73
2024/04/07 05:58:12;;;;;;;4.60;3.20;;;;;;;4.31;81.52;100827.41;5066792;28;20698;-73
2024/04/07 06:00:40;;;;;;;4.97;2.27;;;;;;;4.31;81.57;100807.56;5068852;28;20448;-73
2024/04/07 06:03:06;;;;;;;3.87;2.77;;;;;;;4.34;81.55;100814.47;5071865;28;20453;-72
2024/04/07 06:05:33;;;;;;;5.07;2.90;;;;;;;4.36;81.63;100812.75;5071669;28;20820;-73
2024/04/07 06:07:59;;;;;;;5.47;3.17;;;;;;;4.38;81.83;100795.50;5068549;28;20238;-73
2024/04/07 06:10:26;;;;;;;5.83;2.77;;;;;;;4.39;81.59;100805.84;5062240;28;20452;-71
2024/04/07 06:12:52;;;;;;;4.40;2.33;;;;;;;4.42;81.82;100794.66;5063198;28;20213;-71
2024/04/07 06:15:20;;;;;;;8.10;2.90;;;;;;;4.45;81.85;100801.56;5067266;28;20453;-71
2024/04/07 06:17:46;;;;;;;9.97;3.53;;;;;;;4.46;81.94;100798.97;5068487;28;20244;-71
2024/04/07 06:20:13;;;;;;;7.73;3.10;;;;;;;4.50;82.01;100799.84;5071518;28;20444;-70
2024/04/07 06:22:39;;;;;;;7.47;2.53;;;;;;;4.52;81.88;100793.81;5073636;28;20451;-71
2024/04/07 06:25:06;;;;;;;9.03;2.87;;;;;;;4.54;81.88;100789.50;5074415;28;20449;-71
2024/04/07 06:27:33;;;;;;;6.63;2.80;;;;;;;4.56;81.98;100785.19;5072110;28;20214;-70
2024/04/07 06:30:00;;;;;;;5.20;2.80;;;;;;;4.59;81.92;100774.81;5070047;28;21086;-70
2024/04/07 06:32:27;;;;;;;6.83;3.27;;;;;;;4.62;82.06;100769.63;5067941;28;20453;-71
2024/04/07 06:34:55;;;;;;;7.43;2.80;;;;;;;4.66;82.31;100777.41;5064784;28;20488;-71
2024/04/07 06:37:21;;;;;;;8.50;3.10;;;;;;;4.68;82.42;100773.97;5063248;28;20461;-71
2024/04/07 06:39:47;;;;;;;6.97;3.30;;;;;;;4.71;82.66;100767.94;5060909;28;20453;-70
2024/04/07 06:42:22;;;;;;;8.13;3.13;;;;;;;4.75;82.80;100764.47;5057947;28;20211;-70
2024/04/07 06:44:49;;;;;;;6.90;3.23;;;;;;;4.78;82.51;100769.69;5067321;28;20197;-71
2024/04/07 06:47:14;;;;;;;6.83;3.20;;;;;;;4.81;82.78;100754.13;5074729;28;20448;-71
2024/04/07 06:49:43;;;;;;;8.87;3.47;;;;;;;4.85;82.99;100761.03;5074871;28;20217;-73
2024/04/07 06:52:08;;;;;;;8.33;3.73;;;;;;;4.88;82.83;100760.16;5061037;28;20203;-72
2024/04/07 06:54:35;;;;;;;10.60;3.90;;;;;;;4.90;82.74;100753.28;5069805;28;20492;-73
2024/04/07 06:57:02;;;;;;;9.17;3.83;;;;;;;4.92;82.85;100736.84;5074581;28;20199;-73
2024/04/07 06:59:29;;;;;;;9.17;4.20;;;;;;;4.96;83.19;100738.59;5074671;28;20199;-73
2024/04/07 07:01:54;;;;;;;8.73;3.13;;;;;;;4.99;83.23;100748.97;5074678;28;20448;-73
2024/04/07 07:04:21;;;;;;;6.90;3.60;;;;;;;5.00;83.12;100742.91;5074263;28;20207;-71
2024/04/07 07:06:48;;;;;;;9.60;4.10;;;;;;;5.04;82.90;100747.25;5071103;28;20206;-72
2024/04/07 07:09:15;;;;;;;9.87;3.80;;;;;;;5.10;82.83;100740.34;5074200;28;20472;-72
2024/04/07 07:11:41;;;;;;;9.43;3.83;;;;;;;5.13;83.08;100730.81;5074539;28;20202;-71
2024/04/07 07:14:09;;;;;;;11.53;3.30;;;;;;;5.17;83.56;100736.84;5074233;28;20590;-73
2024/04/07 07:16:35;;;;;;;8.90;2.67;;;;;;;5.18;83.10;100736.88;5072208;28;20201;-73
2024/04/07 07:19:02;;;;;;;6.53;3.70;;;;;;;5.22;83.26;100732.53;5074244;28;20285;-77
2024/04/07 07:21:28;;;;;;;9.77;4.37;;;;;;;5.27;83.22;100736.00;5074214;28;20233;-77
2024/04/07 07:23:56;;;;;;;7.37;3.97;;;;;;;5.28;83.46;100710.03;5073984;28;20488;-77
2024/04/07 07:26:22;;;;;;;10.77;4.40;;;;;;;5.31;83.10;100701.38;5073509;28;20195;-77
2024/04/07 07:28:49;;;;;;;5.57;3.70;;;;;;;5.36;82.86;100701.38;5073984;28;20209;-76
2024/04/07 07:31:15;;;;;;;11.93;4.43;;;;;;;5.39;83.04;100701.38;5074095;28;20671;-77
2024/04/07 07:33:42;;;;;;;8.77;4.10;;;;;;;5.42;83.25;100707.41;5073783;28;20227;-77
2024/04/07 07:36:08;;;;;;;8.60;3.27;;;;;;;5.45;82.99;100712.59;5071323;28;20213;-76
2024/04/07 07:38:35;;;;;;;9.73;4.07;;;;;;;5.50;83.02;100699.63;5074030;28;20206;-76
2024/04/07 07:41:02;;;;;;;10.43;4.23;;;;;;;5.53;82.86;100686.63;5064051;28;20649;-76
2024/04/07 07:43:30;;;;;;;8.40;3.13;;;;;;;5.56;82.79;100688.34;5059778;28;20202;-76
2024/04/07 07:45:56;;;;;;;11.00;4.10;;;;;;;5.58;82.77;100673.66;5073113;28;20267;-76
2024/04/07 07:48:23;;;;;;;8.38;3.13;;;;;;;5.63;82.87;100671.88;5073384;28;20474;-76
2024/04/07 07:50:50;;;;;;;8.57;4.70;;;;;;;5.67;83.10;100671.00;5073651;28;20202;-76
2024/04/07 07:53:16;;;;;;;11.03;4.07;;;;;;;5.71;83.06;100678.75;5073318;28;20239;-76
2024/04/07 07:55:43;;;;;;;6.63;3.63;;;;;;;5.74;82.55;100680.47;5073483;28;20209;-77
2024/04/07 07:58:10;;;;;;;8.93;3.80;;;;;;;5.79;82.85;100691.72;5073250;28;20651;-77
2024/04/07 08:00:37;;;;;;;9.37;4.57;;;;;;;5.82;82.72;100694.28;5073397;28;20202;-72
2024/04/07 08:03:03;;;;;;;12.30;4.33;;;;;;;5.87;82.68;100702.94;5073383;28;20199;-72
2024/04/07 08:05:30;;;;;;;14.53;4.30;;;;;;;5.90;82.45;100715.91;5073158;28;20549;-72
2024/04/07 08:07:56;;;;;;;10.40;4.57;;;;;;;5.94;82.58;100712.44;5072926;28;20687;-72
2024/04/07 08:10:23;;;;;;;8.90;4.27;;;;;;;5.98;82.40;100708.09;5070183;28;20197;-71
2024/04/07 08:12:49;;;;;;;10.97;5.13;;;;;;;5.98;82.59;100698.56;5073069;28;20213;-72
2024/04/07 08:15:17;;;;;;;14.33;4.40;;;;;;;5.98;82.16;100703.75;5073181;28;20580;-72
2024/04/07 08:17:44;;;;;;;11.37;4.47;;;;;;;6.08;82.08;100698.50;5072904;28;20298;-72
2024/04/07 08:20:11;;;;;;;8.60;3.67;;;;;;;6.12;82.25;100700.22;5072871;28;20667;-72
2024/04/07 08:22:38;;;;;;;9.70;4.10;;;;;;;6.16;82.19;100710.56;5073025;28;20660;-72
2024/04/07 08:25:05;;;;;;;8.20;3.53;;;;;;;6.19;81.79;100709.69;5072862;28;20684;-72
2024/04/07 08:27:33;;;;;;;9.70;4.07;;;;;;;6.26;81.73;100687.13;5072726;28;20226;-72
2024/04/07 08:30:00;;;;;;;11.00;2.93;;;;;;;6.31;81.87;100680.16;5073013;28;20202;-77
2024/04/07 08:32:28;;;;;;;12.43;4.13;;;;;;;6.32;81.53;100698.38;5072703;28;20558;-76
2024/04/07 08:34:54;;;;;;;9.90;3.90;;;;;;;6.33;81.49;100702.69;5072430;28;20629;-77
2024/04/07 08:37:22;;;;;;;10.33;3.87;;;;;;;6.35;81.12;100693.16;5072764;28;20251;-77
2024/04/07 08:39:47;;;;;;;11.93;4.70;;;;;;;6.38;81.17;100676.66;5073288;28;20194;-76
2024/04/07 08:42:16;;;;;;;10.90;4.50;;;;;;;6.40;81.33;100699.19;5073629;28;20209;-76
2024/04/07 08:44:44;;;;;;;12.50;3.73;;;;;;;6.43;81.07;100686.16;5068513;28;20214;-77
2024/04/07 08:47:11;;;;;;;11.93;4.50;;;;;;;6.45;81.23;100670.53;5066183;28;20229;-75
2024/04/07 08:49:42;;;;;;;13.93;4.60;;;;;;;6.47;80.89;100684.41;5057108;28;20198;-77
2024/04/07 08:52:10;;;;;;;10.80;3.73;;;;;;;6.49;80.91;100687.84;5055336;28;20212;-77
2024/04/07 08:54:36;;;;;;;12.37;3.40;;;;;;;6.49;80.71;100681.81;5053115;28;20226;-77
2024/04/07 08:57:09;;;;;;;9.93;4.37;;;;;;;6.54;80.56;100678.28;5060751;28;20195;-77
2024/04/07 08:59:38;;;;;;;9.90;4.33;;;;;;;6.56;81.00;100660.06;5072294;28;20209;-77
2024/04/07 09:02:05;;;;;;;15.80;4.67;;;;;;;6.58;80.59;100653.13;5072315;28;20206;-77
2024/04/07 09:04:32;;;;;;;6.80;3.93;;;;;;;6.62;80.96;100660.00;5072595;28;20578;-77
2024/04/07 09:07:03;;;;;;;10.90;4.20;;;;;;;6.66;80.58;100656.53;5072523;28;20208;-77
2024/04/07 09:09:30;;;;;;;16.97;4.30;;;;;;;6.69;81.00;100637.44;5071488;28;20292;-79
2024/04/07 09:11:56;;;;;;;9.57;4.17;;;;;;;6.74;80.72;100633.94;5072705;28;20569;-80
2024/04/07 09:14:25;;;;;;;11.13;4.30;;;;;;;6.78;81.19;100625.22;5072436;28;20234;-82
2024/04/07 09:17:01;;;;;;;13.10;4.37;;;;;;;6.80;81.05;100628.66;5056964;28;20631;-82
2024/04/07 09:19:30;;;;;;;13.10;5.17;;;;;;;6.88;80.70;100631.19;5055407;28;20250;-71
2024/04/07 09:21:56;;;;;;;10.47;4.00;;;;;;;6.88;80.63;100598.25;5072247;28;20213;-72
2024/04/07 09:24:25;;;;;;;10.90;4.33;;;;;;;6.97;80.58;100610.31;5072174;28;20703;-71
2024/04/07 09:26:51;;;;;;;10.77;3.77;;;;;;;7.03;81.16;100653.59;5072082;28;20198;-71
2024/04/07 09:29:18;;;;;;;10.37;3.93;;;;;;;7.09;81.01;100641.38;5072042;28;20673;-71
2024/04/07 09:31:44;;;;;;;11.43;3.73;;;;;;;7.18;81.08;100642.16;5072127;28;20207;-70
2024/04/07 09:34:11;;;;;;;8.90;3.47;;;;;;;7.29;80.89;100642.91;5071846;28;20734;-71
2024/04/07 09:36:37;;;;;;;10.57;4.37;;;;;;;7.38;81.13;100639.34;5072048;28;20559;-71
2024/04/07 09:39:04;;;;;;;10.47;3.23;;;;;;;7.46;80.49;100625.38;5071910;28;20210;-73
2024/04/07 09:41:35;;;;;;;11.00;4.03;;;;;;;7.52;80.50;100619.25;5064709;28;20215;-73
2024/04/07 09:44:06;;;;;;;10.33;3.93;;;;;;;7.57;80.29;100620.06;5057514;28;20234;-73
2024/04/07 09:46:37;;;;;;;14.63;4.30;;;;;;;7.63;80.28;100625.19;5062787;28;20203;-72
2024/04/07 09:49:08;;;;;;;13.83;4.00;;;;;;;7.68;80.15;100612.97;5066004;28;20207;-73
2024/04/07 09:51:41;;;;;;;11.00;3.70;;;;;;;7.74;80.29;100615.47;5073681;28;20254;-73
2024/04/07 09:54:15;;;;;;;11.07;3.80;;;;;;;7.80;80.65;100616.28;5075533;28;20224;-72
2024/04/07 09:56:44;;;;;;;13.13;3.70;;;;;;;7.85;80.14;100619.66;5073503;28;20212;-72
2024/04/07 09:59:11;;;;;;;11.63;4.10;;;;;;;7.91;80.36;100628.28;5075781;28;20541;-73
2024/04/07 10:01:38;;;;;;;12.32;4.68;;;;;;;7.99;80.58;100628.16;5074999;28;20933;-73
2024/04/07 10:04:07;;;;;;;7.77;3.83;;;;;;;8.10;80.30;100618.44;5075511;28;20297;-74
2024/04/07 10:06:34;;;;;;;9.03;3.67;;;;;;;8.22;80.65;100633.00;5075396;28;20677;-71
2024/04/07 10:09:03;;;;;;;6.87;3.10;;;;;;;8.36;80.01;100630.19;5073569;28;20237;-72
2024/04/07 10:11:29;;;;;;;10.73;4.03;;;;;;;8.43;80.10;100624.88;5074016;28;20215;-72
2024/04/07 10:13:57;;;;;;;11.27;3.67;;;;;;;8.49;79.75;100634.34;5075374;28;20229;-72
2024/04/07 10:16:24;;;;;;;7.27;3.40;;;;;;;8.52;79.88;100636.03;5075304;28;20209;-72
2024/04/07 10:18:51;;;;;;;12.57;3.77;;;;;;;8.54;79.65;100631.66;5074474;28;20209;-82
2024/04/07 10:21:17;;;;;;;10.63;3.00;;;;;;;8.59;79.54;100638.53;5059999;28;20272;-81
2024/04/07 10:23:44;;;;;;;8.30;3.50;;;;;;;8.63;79.57;100644.56;5071121;28;20582;-82
2024/04/07 10:26:10;;;;;;;8.47;3.10;;;;;;;8.65;79.62;100654.06;5069523;28;20198;-82
2024/04/07 10:28:48;;;;;;;10.17;3.90;;;;;;;8.71;79.83;100657.47;5067851;28;20205;-82
2024/04/07 10:31:22;;;;;;;17.47;13.57;;;;;;;8.74;79.54;100654.81;5065049;28;20198;-82
2024/04/07 10:33:50;;;;;;;29.03;17.13;;;;;;;8.78;79.46;100653.84;5064813;28;20205;-82
2024/04/07 10:36:17;;;;;;;25.90;12.23;;;;;;;8.82;79.33;100645.13;5069015;28;20212;-82
2024/04/07 10:38:46;;;;;;;5.87;3.57;;;;;;;8.84;79.09;100654.59;5067348;28;20618;-82
2024/04/07 10:41:17;;;;;;;7.73;3.00;;;;;;;8.86;79.08;100649.38;5056386;28;20256;-83
2024/04/07 10:43:45;;;;;;;8.90;3.43;;;;;;;8.84;79.15;100646.78;5056920;28;20613;-82
2024/04/07 10:46:11;;;;;;;5.33;2.87;;;;;;;8.91;79.28;100648.41;5068499;28;20221;-82
2024/04/07 10:48:40;;;;;;;5.70;2.57;;;;;;;8.94;78.66;100639.66;5069677;28;20271;-82
2024/04/07 10:51:06;;;;;;;8.67;2.87;;;;;;;8.95;79.01;100636.16;5072812;28;20296;-75
2024/04/07 10:53:33;;;;;;;10.30;3.30;;;;;;;8.99;79.02;100632.63;5074541;28;20202;-75
2024/04/07 10:56:01;;;;;;;7.30;2.90;;;;;;;8.99;78.66;100629.13;5074610;28;20230;-74
2024/04/07 10:58:28;;;;;;;5.10;3.00;;;;;;;9.01;78.83;100632.56;5074020;28;20201;-75
2024/04/07 11:00:54;;;;;;;6.87;2.57;;;;;;;9.03;78.90;100629.06;5074166;28;20667;-75
2024/04/07 11:03:22;;;;;;;8.10;2.90;;;;;;;9.05;78.85;100619.44;5074812;28;20247;-76
2024/04/07 11:05:49;;;;;;;5.00;2.53;;;;;;;9.09;78.80;100634.16;5074445;28;20209;-76
2024/04/07 11:08:16;;;;;;;6.40;2.80;;;;;;;9.11;78.44;100639.38;5073750;28;20225;-76
2024/04/07 11:10:42;;;;;;;10.73;6.40;;;;;;;9.12;78.57;100635.84;5074415;28;20205;-74
2024/04/07 11:13:10;;;;;;;7.50;4.93;;;;;;;9.14;78.69;100637.53;5074269;28;20572;-75
2024/04/07 11:15:35;;;;;;;7.77;3.07;;;;;;;9.17;78.47;100638.38;5074244;28;20229;-75
2024/04/07 11:18:13;;;;;;;5.23;2.77;;;;;;;9.18;78.43;100646.16;5071626;28;20202;-74
2024/04/07 11:20:39;;;;;;;4.73;2.37;;;;;;;9.18;78.39;100640.09;5071971;28;20198;-76
2024/04/07 11:23:09;;;;;;;4.43;2.23;;;;;;;9.19;78.38;100639.19;5074113;28;20703;-75
2024/04/07 11:25:35;;;;;;;5.33;2.60;;;;;;;9.21;78.17;100621.75;5074122;28;20685;-75
2024/04/07 11:28:02;;;;;;;4.80;2.30;;;;;;;9.20;78.11;100628.75;5074139;28;20212;-75
2024/04/07 11:30:33;;;;;;;6.03;2.53;;;;;;;9.23;78.41;100625.22;5071538;28;20564;-75
2024/04/07 11:33:02;;;;;;;4.70;2.37;;;;;;;9.24;78.41;100613.88;5073329;28;20289;-75
2024/04/07 11:35:28;;;;;;;6.57;2.00;;;;;;;9.25;78.06;100615.59;5073896;28;20703;-75